Time;durP1;ratioP1;P1;durP2;ratioP2;P2;SDS_P1;SDS_P2;PMS_P1;PMS_P2;Temp;Humidity;BMP_temperature;BMP_pressure;BME280_temperature;BME280_humidity;BME280_pressure;Samples;Min_cycle;Max_cycle;Signal;HPM_P1;HPM_P2
2022/04/19 00:00:33;;;;;;;1.52;1.20;;;6.80;68.40;;;;;;5081082;28;20035;-81
2022/04/19 00:03:00;;;;;;;1.23;0.90;;;6.80;68.60;;;;;;5080456;28;20062;-80
2022/04/19 00:05:26;;;;;;;2.40;1.83;;;6.80;68.90;;;;;;5062391;28;20041;-82
2022/04/19 00:07:52;;;;;;;1.10;1.00;;;6.80;69.10;;;;;;5079644;28;20021;-80
2022/04/19 00:10:18;;;;;;;1.15;1.02;;;6.70;69.20;;;;;;5080598;28;20024;-81
2022/04/19 00:12:44;;;;;;;1.98;1.20;;;6.70;69.50;;;;;;5080287;28;20028;-82
2022/04/19 00:15:10;;;;;;;2.50;1.75;;;6.70;69.50;;;;;;5081051;28;20095;-82
2022/04/19 00:17:36;;;;;;;2.38;1.40;;;6.70;69.60;;;;;;5071499;28;20020;-81
2022/04/19 00:20:02;;;;;;;1.58;1.20;;;6.70;69.70;;;;;;5080240;28;20080;-81
2022/04/19 00:22:28;;;;;;;1.08;1.00;;;6.70;69.80;;;;;;5085662;28;20029;-82
2022/04/19 00:24:55;;;;;;;1.63;1.10;;;6.60;69.80;;;;;;5096686;28;20048;-81
2022/04/19 00:27:22;;;;;;;1.65;1.40;;;6.60;70.00;;;;;;5063173;28;20055;-82
2022/04/19 00:29:49;;;;;;;2.28;1.20;;;6.60;70.10;;;;;;5077879;28;20092;-81
2022/04/19 00:32:15;;;;;;;1.58;1.17;;;6.60;70.30;;;;;;5064996;28;20023;-82
2022/04/19 00:34:41;;;;;;;1.38;1.00;;;6.60;70.30;;;;;;5081435;28;20461;-82
2022/04/19 00:37:07;;;;;;;1.85;1.42;;;6.60;70.40;;;;;;5078921;28;20115;-82
2022/04/19 00:39:33;;;;;;;1.55;1.20;;;6.60;70.30;;;;;;5079668;28;20020;-82
2022/04/19 00:41:59;;;;;;;2.35;1.30;;;6.60;70.20;;;;;;5080836;28;20172;-82
2022/04/19 00:44:25;;;;;;;1.80;1.10;;;6.50;70.30;;;;;;5083757;28;20049;-82
2022/04/19 00:46:51;;;;;;;1.80;1.30;;;6.50;70.40;;;;;;5054007;28;20044;-82
2022/04/19 00:49:17;;;;;;;2.88;1.33;;;6.50;70.60;;;;;;5077928;28;20023;-82
2022/04/19 00:51:44;;;;;;;1.38;0.88;;;6.40;70.70;;;;;;5082637;28;20464;-81
2022/04/19 00:54:12;;;;;;;1.80;1.35;;;6.40;70.90;;;;;;5068989;28;20035;-81
2022/04/19 00:56:39;;;;;;;1.08;0.90;;;6.40;71.00;;;;;;5072062;28;20134;-81
2022/04/19 00:59:05;;;;;;;2.58;1.23;;;6.40;71.10;;;;;;5092881;28;20528;-82
2022/04/19 01:01:30;;;;;;;1.52;0.90;;;6.40;71.30;;;;;;5074180;28;20043;-82
2022/04/19 01:03:58;;;;;;;2.25;1.13;;;6.30;71.40;;;;;;5094574;28;20020;-81
2022/04/19 01:06:24;;;;;;;2.13;1.10;;;6.30;71.50;;;;;;5093255;28;20208;-79
2022/04/19 01:08:50;;;;;;;1.38;1.20;;;6.30;71.60;;;;;;5092353;28;20043;-80
2022/04/19 01:14:21;;;;;;;2.97;1.08;;;6.30;71.80;;;;;;4975552;28;20083;-82
2022/04/19 01:16:46;;;;;;;3.13;1.48;;;6.30;71.90;;;;;;4973091;28;20027;-82
2022/04/19 01:19:17;;;;;;;1.90;1.13;;;6.30;71.90;;;;;;5016634;28;20126;-82
2022/04/19 01:21:48;;;;;;;2.53;1.42;;;6.20;72.10;;;;;;5061689;28;20066;-82
2022/04/19 01:24:18;;;;;;;2.40;1.45;;;6.20;72.40;;;;;;5062552;28;20159;-82
2022/04/19 01:26:44;;;;;;;1.63;1.17;;;6.20;72.60;;;;;;5079666;28;20111;-82
2022/04/19 01:29:11;;;;;;;2.17;1.50;;;6.10;72.70;;;;;;5078992;28;20051;-82
2022/04/19 01:31:39;;;;;;;1.33;0.98;;;6.10;72.90;;;;;;5079422;28;20047;-82
2022/04/19 01:34:05;;;;;;;2.38;1.02;;;6.10;73.00;;;;;;5079496;28;20465;-82
2022/04/19 01:36:36;;;;;;;1.60;0.98;;;6.00;73.20;;;;;;5079686;28;20086;-82
2022/04/19 01:39:07;;;;;;;2.20;1.20;;;6.00;73.40;;;;;;5078588;28;20035;-82
2022/04/19 01:41:34;;;;;;;2.03;1.30;;;6.00;73.40;;;;;;5078997;28;20056;-82
2022/04/19 01:44:00;;;;;;;4.03;1.52;;;5.90;73.70;;;;;;5075729;28;20060;-82
2022/04/19 01:46:27;;;;;;;1.58;1.20;;;5.90;73.90;;;;;;5069242;28;20465;-82
2022/04/19 01:48:54;;;;;;;1.50;1.10;;;5.80;74.20;;;;;;5078653;28;20032;-81
2022/04/19 01:51:21;;;;;;;3.03;1.25;;;5.90;74.40;;;;;;5079197;28;20086;-80
2022/04/19 01:53:48;;;;;;;1.55;1.27;;;5.80;74.40;;;;;;5078921;28;20023;-81
2022/04/19 01:56:14;;;;;;;1.60;1.15;;;5.80;74.60;;;;;;5060912;28;20017;-81
2022/04/19 01:58:40;;;;;;;1.33;1.20;;;5.80;74.70;;;;;;5078782;28;20099;-81
2022/04/19 02:01:06;;;;;;;2.35;1.30;;;5.80;74.80;;;;;;5078546;28;20017;-81
2022/04/19 02:03:32;;;;;;;2.65;1.00;;;5.80;74.90;;;;;;5080180;28;20076;-83
2022/04/19 02:05:57;;;;;;;1.35;0.95;;;5.80;74.90;;;;;;5082070;28;20076;-81
2022/04/19 02:08:23;;;;;;;1.23;1.02;;;5.80;74.90;;;;;;5076075;28;20131;-83
2022/04/19 02:10:49;;;;;;;2.60;1.58;;;5.80;74.90;;;;;;5086841;28;20016;-81
2022/04/19 02:13:14;;;;;;;1.60;1.10;;;5.80;74.90;;;;;;5095516;28;20106;-81
2022/04/19 02:15:40;;;;;;;1.55;1.30;;;5.80;75.20;;;;;;5094425;28;20158;-81
2022/04/19 02:18:06;;;;;;;2.00;1.70;;;5.70;75.30;;;;;;5091729;28;20041;-81
2022/04/19 02:20:32;;;;;;;1.73;1.50;;;5.70;75.40;;;;;;5085494;28;20031;-80
2022/04/19 02:22:57;;;;;;;3.75;2.40;;;5.70;75.50;;;;;;5084653;28;20021;-81
2022/04/19 02:25:24;;;;;;;1.52;1.10;;;5.70;75.60;;;;;;5084682;28;20078;-81
2022/04/19 02:27:52;;;;;;;1.98;1.23;;;5.70;75.60;;;;;;5083918;28;20033;-81
2022/04/19 02:30:18;;;;;;;2.10;1.20;;;5.70;75.70;;;;;;5083991;28;20013;-82
2022/04/19 02:32:46;;;;;;;2.30;1.50;;;5.70;75.80;;;;;;5083745;28;20024;-81
2022/04/19 02:35:20;;;;;;;1.85;1.35;;;5.70;76.00;;;;;;5082020;28;20017;-81
2022/04/19 02:37:54;;;;;;;1.60;1.25;;;5.70;75.90;;;;;;5083755;28;20020;-82
2022/04/19 02:40:21;;;;;;;2.95;1.23;;;5.70;75.90;;;;;;5066550;28;20028;-82
2022/04/19 02:42:48;;;;;;;2.08;1.15;;;5.80;75.90;;;;;;5084845;28;20032;-81
2022/04/19 02:45:14;;;;;;;1.50;1.20;;;5.80;75.70;;;;;;5085010;28;20116;-81
2022/04/19 02:47:43;;;;;;;3.33;1.35;;;5.80;75.70;;;;;;5075960;28;20047;-81
2022/04/19 02:50:09;;;;;;;1.35;1.10;;;5.90;75.70;;;;;;5065144;28;20035;-82
2022/04/19 02:52:35;;;;;;;2.63;1.35;;;5.90;75.60;;;;;;5081703;28;20032;-81
2022/04/19 02:55:01;;;;;;;1.83;1.35;;;5.90;75.50;;;;;;5083033;28;20017;-81
2022/04/19 02:57:26;;;;;;;2.45;1.40;;;6.00;75.40;;;;;;5082401;28;20029;-81
2022/04/19 02:59:53;;;;;;;2.70;1.65;;;6.00;75.10;;;;;;5081853;28;20051;-82
2022/04/19 03:02:19;;;;;;;2.63;1.23;;;6.00;75.00;;;;;;5064065;28;20036;-82
2022/04/19 03:04:45;;;;;;;1.60;1.20;;;6.00;75.00;;;;;;5084925;28;20034;-82
2022/04/19 03:07:14;;;;;;;1.75;0.98;;;6.00;74.90;;;;;;5083817;28;20025;-82
2022/04/19 03:09:41;;;;;;;1.88;1.10;;;6.00;74.80;;;;;;5083371;28;20033;-82
2022/04/19 03:12:10;;;;;;;1.75;1.38;;;6.00;74.80;;;;;;5081763;28;20021;-82
2022/04/19 03:14:36;;;;;;;1.52;1.35;;;6.00;74.80;;;;;;5062674;28;20072;-82
2022/04/19 03:17:02;;;;;;;1.48;1.27;;;6.00;74.80;;;;;;5072866;28;20028;-82
2022/04/19 03:19:28;;;;;;;3.13;1.10;;;6.00;74.90;;;;;;5078697;28;20131;-83
2022/04/19 03:21:54;;;;;;;1.15;1.05;;;6.00;74.90;;;;;;5078802;28;20032;-82
2022/04/19 03:29:48;;;;;;;1.00;0.90;;;6.00;75.10;;;;;;5080521;28;20032;-81
2022/04/19 03:32:14;;;;;;;0.80;0.80;;;5.90;75.10;;;;;;5090538;28;20020;-82
2022/04/19 03:34:40;;;;;;;1.70;1.15;;;6.00;75.20;;;;;;5086663;28;20028;-82
2022/04/19 03:37:06;;;;;;;2.58;1.67;;;6.00;75.30;;;;;;5080619;28;20585;-82
2022/04/19 03:39:31;;;;;;;2.50;1.25;;;6.10;75.20;;;;;;5080825;28;20056;-83
2022/04/19 03:41:58;;;;;;;1.10;0.90;;;6.00;75.10;;;;;;5081506;28;20457;-83
2022/04/19 03:44:26;;;;;;;1.58;1.15;;;6.10;75.20;;;;;;5063127;28;20061;-82
2022/04/19 03:47:08;;;;;;;1.15;1.05;;;6.10;75.10;;;;;;5062563;28;20033;-83
2022/04/19 03:49:39;;;;;;;2.83;1.10;;;6.10;75.20;;;;;;5074680;28;20052;-81
2022/04/19 03:52:06;;;;;;;1.20;0.93;;;6.10;75.20;;;;;;5060532;28;20032;-83
2022/04/19 03:54:34;;;;;;;2.67;1.35;;;6.10;75.20;;;;;;5079139;28;20096;-81
2022/04/19 03:57:07;;;;;;;2.05;1.15;;;6.10;75.00;;;;;;5080184;28;20021;-82
2022/04/19 03:59:34;;;;;;;2.72;1.40;;;6.10;74.90;;;;;;5076207;28;20499;-81
2022/04/19 04:02:00;;;;;;;3.40;1.35;;;6.10;74.90;;;;;;5076745;28;20304;-81
2022/04/19 04:04:30;;;;;;;1.90;1.20;;;6.10;74.70;;;;;;5078705;28;20055;-81
2022/04/19 04:06:57;;;;;;;2.83;1.30;;;6.20;74.80;;;;;;5079776;28;20025;-82
2022/04/19 04:09:24;;;;;;;3.10;1.48;;;6.20;74.70;;;;;;5078909;28;20435;-81
2022/04/19 04:11:50;;;;;;;2.28;1.13;;;6.20;74.60;;;;;;5061114;28;20111;-82
2022/04/19 04:14:15;;;;;;;1.63;1.08;;;6.10;74.40;;;;;;5079565;28;20094;-82
2022/04/19 04:16:41;;;;;;;1.40;1.00;;;6.10;74.50;;;;;;5079988;28;20025;-82
2022/04/19 04:19:07;;;;;;;1.75;0.90;;;6.10;74.60;;;;;;5061858;28;20032;-82
2022/04/19 04:21:32;;;;;;;1.83;1.25;;;6.10;74.70;;;;;;5062261;28;20028;-82
2022/04/19 04:23:58;;;;;;;2.92;1.20;;;6.10;74.80;;;;;;5062270;28;20028;-82
2022/04/19 04:26:24;;;;;;;2.10;1.50;;;6.10;74.70;;;;;;5080193;28;20040;-82
2022/04/19 04:28:49;;;;;;;2.80;1.23;;;6.10;74.60;;;;;;5062738;28;20024;-82
2022/04/19 04:31:15;;;;;;;1.67;1.10;;;6.10;74.60;;;;;;5080683;28;20020;-82
2022/04/19 04:33:41;;;;;;;1.58;1.13;;;6.00;74.60;;;;;;5081266;28;20085;-81
2022/04/19 04:36:06;;;;;;;1.20;1.10;;;6.10;74.60;;;;;;5061151;28;20040;-82
2022/04/19 04:38:32;;;;;;;1.83;1.20;;;6.10;74.60;;;;;;5064605;28;20032;-81
2022/04/19 04:40:58;;;;;;;1.38;1.00;;;6.10;74.70;;;;;;5083772;28;20100;-80
2022/04/19 04:43:23;;;;;;;2.58;1.20;;;6.10;74.60;;;;;;5070914;28;20070;-80
2022/04/19 04:49:35;;;;;;;2.00;1.40;;;6.10;74.40;;;;;;5080302;28;20084;-81
2022/04/19 04:51:19;;;;;;;1.83;1.17;;;6.20;74.10;;;;;;5069354;28;20039;-80
2022/04/19 04:53:45;;;;;;;1.02;0.93;;;6.20;73.90;;;;;;5070995;28;20060;-80
2022/04/19 04:56:10;;;;;;;1.63;0.90;;;6.30;73.60;;;;;;5062588;28;20080;-82
2022/04/19 04:58:36;;;;;;;1.48;0.82;;;6.40;73.50;;;;;;5065398;28;20021;-81
2022/04/19 05:01:02;;;;;;;0.77;0.70;;;6.50;73.10;;;;;;5061113;28;20025;-81
2022/04/19 05:03:28;;;;;;;1.08;0.90;;;6.60;72.90;;;;;;5060271;28;20036;-82
2022/04/19 05:05:54;;;;;;;1.40;0.85;;;6.70;72.50;;;;;;5053108;28;20021;-84
2022/04/19 05:08:19;;;;;;;1.00;0.90;;;6.90;72.10;;;;;;5079594;28;20046;-80
2022/04/19 05:10:45;;;;;;;0.93;0.82;;;7.00;71.50;;;;;;5078051;28;20051;-79
2022/04/19 05:13:10;;;;;;;1.20;0.98;;;7.00;71.10;;;;;;5065962;28;20021;-81
2022/04/19 05:15:36;;;;;;;3.30;1.20;;;7.10;70.60;;;;;;5067520;28;20020;-80
2022/04/19 05:18:02;;;;;;;2.67;1.08;;;7.20;70.40;;;;;;5066345;28;20036;-81
2022/04/19 05:20:28;;;;;;;0.55;0.55;;;7.40;69.90;;;;;;5066100;28;20054;-81
2022/04/19 05:22:54;;;;;;;2.70;0.90;;;7.50;69.30;;;;;;5037262;28;20456;-81
2022/04/19 05:25:19;;;;;;;2.00;1.05;;;7.70;68.90;;;;;;5054638;28;20029;-80
2022/04/19 05:27:45;;;;;;;1.88;1.20;;;7.70;68.30;;;;;;5053835;28;20541;-81
2022/04/19 05:30:11;;;;;;;3.00;1.52;;;7.80;67.80;;;;;;5054790;28;20084;-80
2022/04/19 05:32:37;;;;;;;2.67;1.30;;;7.80;67.50;;;;;;5055979;28;20025;-79
2022/04/19 05:35:03;;;;;;;2.72;1.33;;;7.80;67.30;;;;;;5055963;28;20025;-80
2022/04/19 05:37:28;;;;;;;2.53;1.40;;;7.70;67.10;;;;;;5055234;28;20025;-82
2022/04/19 05:39:54;;;;;;;3.30;1.05;;;7.70;67.40;;;;;;5059005;28;20029;-81
2022/04/19 05:42:20;;;;;;;3.20;1.10;;;7.70;67.40;;;;;;5059630;28;20161;-80
2022/04/19 05:44:46;;;;;;;2.78;1.33;;;7.80;67.10;;;;;;5068529;28;20128;-80
2022/04/19 05:47:15;;;;;;;2.75;1.25;;;8.00;66.90;;;;;;5081860;28;20040;-81
2022/04/19 05:49:40;;;;;;;1.77;1.23;;;8.10;66.60;;;;;;5062653;28;20101;-84
2022/04/19 05:52:06;;;;;;;2.38;1.20;;;8.10;66.50;;;;;;5067253;28;20029;-83
2022/04/19 05:54:32;;;;;;;2.80;1.35;;;8.30;66.10;;;;;;5065002;28;20025;-82
2022/04/19 05:56:57;;;;;;;1.52;1.13;;;8.40;65.60;;;;;;5046728;28;20062;-84
2022/04/19 05:59:23;;;;;;;1.55;1.20;;;8.50;65.60;;;;;;5063174;28;20036;-83
2022/04/19 06:07:17;;;;;;;1.45;1.05;;;9.50;64.40;;;;;;5063769;28;20052;-84
2022/04/19 06:09:43;;;;;;;3.38;2.50;;;10.00;62.80;;;;;;5063132;28;20021;-84
2022/04/19 06:12:09;;;;;;;5.55;1.55;;;10.30;61.00;;;;;;5069826;28;20070;-82
2022/04/19 06:14:35;;;;;;;2.10;1.65;;;10.40;59.50;;;;;;5086575;28;20016;-80
2022/04/19 06:17:00;;;;;;;3.35;1.60;;;10.40;59.50;;;;;;5080449;28;20037;-83
2022/04/19 06:19:27;;;;;;;2.60;1.80;;;10.40;59.80;;;;;;5062920;28;20033;-84
2022/04/19 06:21:53;;;;;;;4.70;1.40;;;10.40;60.00;;;;;;5064283;28;20087;-84
2022/04/19 06:24:19;;;;;;;4.10;1.92;;;10.50;59.70;;;;;;5071861;28;20017;-82
2022/04/19 06:26:45;;;;;;;3.00;1.50;;;10.50;59.50;;;;;;5079969;28;20029;-83
2022/04/19 06:29:11;;;;;;;3.22;1.67;;;10.50;59.70;;;;;;5079456;28;20032;-81
2022/04/19 06:31:37;;;;;;;2.58;1.73;;;10.40;59.60;;;;;;5080067;28;20024;-81
2022/04/19 06:34:02;;;;;;;4.30;1.88;;;10.40;60.00;;;;;;5050264;28;20494;-81
2022/04/19 06:36:28;;;;;;;3.83;1.50;;;10.20;60.90;;;;;;5059589;28;20486;-84
2022/04/19 06:38:54;;;;;;;3.67;2.17;;;10.20;60.20;;;;;;5060030;28;20108;-83
2022/04/19 06:41:20;;;;;;;5.07;2.38;;;10.30;60.50;;;;;;5060121;28;20029;-84
2022/04/19 06:43:46;;;;;;;2.33;2.00;;;10.50;59.60;;;;;;5062737;28;20480;-85
2022/04/19 06:46:12;;;;;;;4.45;2.13;;;10.60;59.10;;;;;;5071503;28;20048;-82
2022/04/19 06:48:38;;;;;;;3.97;1.88;;;10.70;59.20;;;;;;5081254;28;20530;-84
2022/04/19 06:51:04;;;;;;;2.17;1.55;;;10.70;59.20;;;;;;5080136;28;20021;-84
2022/04/19 06:53:30;;;;;;;4.22;1.95;;;10.90;58.90;;;;;;5082251;28;20043;-83
2022/04/19 06:55:56;;;;;;;3.70;1.77;;;11.00;57.90;;;;;;5065635;28;20025;-83
2022/04/19 06:58:22;;;;;;;2.20;1.73;;;11.20;57.70;;;;;;5084628;28;20080;-85
2022/04/19 07:00:48;;;;;;;5.30;2.45;;;11.30;57.70;;;;;;5080509;28;20071;-82
2022/04/19 07:03:14;;;;;;;3.58;1.92;;;11.50;56.50;;;;;;5081707;28;20025;-83
2022/04/19 07:05:43;;;;;;;3.28;1.60;;;11.60;56.30;;;;;;5082909;28;20111;-85
2022/04/19 07:08:11;;;;;;;5.97;2.13;;;11.60;56.10;;;;;;5065332;28;20389;-83
2022/04/19 07:10:37;;;;;;;3.80;2.40;;;11.60;55.80;;;;;;5083402;28;20094;-84
2022/04/19 07:13:03;;;;;;;4.38;1.90;;;11.40;56.30;;;;;;5084175;28;20485;-84
2022/04/19 07:15:29;;;;;;;3.20;2.40;;;11.40;57.00;;;;;;5081420;28;20027;-84
2022/04/19 07:17:55;;;;;;;3.38;2.10;;;11.30;56.80;;;;;;5061970;28;20025;-83
2022/04/19 07:28:36;;;;;;;5.60;2.22;;;11.20;57.60;;;;;;5061445;28;20138;-82
2022/04/19 07:31:03;;;;;;;3.75;2.83;;;11.20;57.80;;;;;;5061722;28;20032;-80
2022/04/19 07:33:40;;;;;;;7.70;2.65;;;11.40;57.30;;;;;;5042904;28;20027;-84
2022/04/19 07:36:35;;;;;;;2.63;2.30;;;11.50;57.20;;;;;;5061698;28;20033;-84
2022/04/19 07:39:14;;;;;;;3.90;2.03;;;11.60;57.40;;;;;;5061598;28;20036;-83
2022/04/19 07:41:47;;;;;;;5.38;2.58;;;11.70;57.30;;;;;;5061616;28;20051;-83
2022/04/19 07:44:20;;;;;;;3.70;2.55;;;11.80;56.80;;;;;;5047523;28;20131;-83
2022/04/19 07:46:50;;;;;;;5.15;2.20;;;11.70;55.90;;;;;;5072218;28;20299;-82
2022/04/19 07:49:30;;;;;;;2.58;2.00;;;11.70;56.00;;;;;;5082185;28;20033;-85
2022/04/19 07:51:55;;;;;;;3.97;2.15;;;11.90;56.30;;;;;;5072030;28;20016;-82
2022/04/19 07:54:22;;;;;;;6.20;2.35;;;12.30;55.60;;;;;;5094253;28;20008;-82
2022/04/19 07:56:47;;;;;;;3.00;2.30;;;12.40;54.80;;;;;;5095768;28;20024;-81
2022/04/19 07:59:13;;;;;;;3.45;2.42;;;12.70;54.60;;;;;;5095515;28;20051;-81
2022/04/19 08:01:39;;;;;;;6.18;2.67;;;12.90;52.80;;;;;;5081793;28;20020;-82
2022/04/19 08:04:04;;;;;;;3.33;2.60;;;12.90;52.30;;;;;;5066693;28;20109;-83
2022/04/19 08:06:31;;;;;;;4.20;2.75;;;12.80;52.60;;;;;;5086203;28;20521;-81
2022/04/19 08:08:56;;;;;;;4.07;2.90;;;12.80;52.30;;;;;;5083902;28;20112;-82
2022/04/19 08:11:22;;;;;;;3.53;2.65;;;13.00;51.80;;;;;;5078875;28;20497;-82
2022/04/19 08:13:48;;;;;;;4.13;2.65;;;13.10;51.80;;;;;;5081020;28;20022;-82
2022/04/19 08:16:29;;;;;;;5.65;2.88;;;13.20;51.20;;;;;;5083586;28;20024;-83
2022/04/19 08:19:24;;;;;;;4.95;2.70;;;13.20;51.40;;;;;;5069079;28;20032;-84
2022/04/19 08:21:51;;;;;;;6.50;4.20;;;13.30;51.40;;;;;;5047381;28;20036;-82
2022/04/19 08:25:03;;;;;;;3.08;2.30;;;13.40;50.70;;;;;;5073924;28;20021;-83
2022/04/19 08:28:20;;;;;;;4.45;2.75;;;13.50;50.30;;;;;;5047773;28;20037;-80
2022/04/19 08:34:45;;;;;;;6.35;2.90;;;13.80;50.70;;;;;;5015290;28;20034;-82
2022/04/19 08:37:13;;;;;;;4.90;3.30;;;14.10;50.70;;;;;;5042381;28;20105;-82
2022/04/19 08:39:39;;;;;;;3.60;2.85;;;14.30;49.60;;;;;;5057488;28;20047;-81
2022/04/19 08:42:06;;;;;;;6.22;3.33;;;14.30;50.20;;;;;;5071315;28;20025;-82
2022/04/19 08:44:36;;;;;;;4.20;3.08;;;14.30;50.10;;;;;;5088676;28;20047;-83
2022/04/19 08:47:06;;;;;;;4.88;3.53;;;14.30;49.50;;;;;;5071430;28;20024;-82
2022/04/19 08:49:39;;;;;;;5.20;3.03;;;14.10;50.10;;;;;;5089502;28;20064;-82
2022/04/19 08:52:05;;;;;;;4.05;3.05;;;13.90;50.50;;;;;;5089980;28;20016;-82
2022/04/19 08:57:31;;;;;;;6.82;3.25;;;13.40;52.00;;;;;;5087543;28;20087;-84
2022/04/19 09:00:03;;;;;;;7.75;3.95;;;13.80;51.90;;;;;;5083687;28;20027;-83
2022/04/19 09:02:41;;;;;;;5.80;3.50;;;14.00;50.50;;;;;;5093321;22;20046;-85
2022/04/19 09:08:36;;;;;;;6.22;4.65;;;14.10;49.30;;;;;;5091917;28;20090;-84
2022/04/19 09:11:47;;;;;;;5.05;3.70;;;14.00;49.50;;;;;;5064439;28;20039;-85
2022/04/19 09:14:25;;;;;;;5.60;3.95;;;13.90;50.30;;;;;;5081485;28;20020;-84
2022/04/19 09:17:04;;;;;;;6.80;3.88;;;13.80;50.30;;;;;;5053192;28;20070;-85
2022/04/19 09:19:32;;;;;;;5.05;4.05;;;13.80;50.40;;;;;;5045519;28;20029;-85
2022/04/19 09:22:44;;;;;;;7.85;4.18;;;13.80;50.90;;;;;;5037242;28;20033;-85
2022/04/19 09:26:01;;;;;;;6.95;4.45;;;14.10;50.20;;;;;;5043378;28;20044;-85
2022/04/19 09:29:24;;;;;;;6.55;4.78;;;14.40;49.40;;;;;;4999419;28;20030;-85
2022/04/19 09:32:14;;;;;;;7.20;4.70;;;14.60;48.80;;;;;;4984393;28;20038;-84
2022/04/19 09:34:48;;;;;;;7.13;4.20;;;14.60;48.20;;;;;;4999997;28;20381;-83
2022/04/19 09:37:13;;;;;;;8.48;5.15;;;14.60;48.20;;;;;;5000533;28;20035;-84
2022/04/19 09:39:41;;;;;;;6.30;4.55;;;14.70;48.10;;;;;;5042869;28;20036;-84
2022/04/19 09:42:16;;;;;;;3.63;3.15;;;14.90;47.90;;;;;;5063451;28;20390;-84
2022/04/19 09:44:51;;;;;;;6.13;4.25;;;15.20;48.30;;;;;;5070073;28;20036;-84
2022/04/19 09:47:17;;;;;;;5.97;3.70;;;15.00;47.60;;;;;;5066771;28;20020;-84
2022/04/19 09:49:48;;;;;;;7.28;4.18;;;14.80;48.00;;;;;;5063364;28;20035;-84
2022/04/19 09:52:24;;;;;;;6.53;4.20;;;14.80;48.40;;;;;;5080620;28;20027;-83
2022/04/19 09:55:05;;;;;;;8.88;4.18;;;15.00;48.00;;;;;;5063941;28;20263;-84
2022/04/19 09:57:35;;;;;;;4.93;3.75;;;15.00;47.80;;;;;;5062537;28;20021;-85
2022/04/19 10:00:02;;;;;;;6.63;4.47;;;15.00;48.30;;;;;;5046567;28;20038;-85
2022/04/19 10:10:42;;;;;;;5.40;4.43;;;14.80;47.70;;;;;;5076257;28;20051;-84
2022/04/19 10:13:08;;;;;;;8.98;4.95;;;14.70;47.90;;;;;;5087719;28;20013;-84
2022/04/19 10:15:37;;;;;;;7.05;4.53;;;14.90;48.50;;;;;;5059689;28;20025;-84
2022/04/19 10:18:09;;;;;;;8.57;4.60;;;15.30;46.90;;;;;;5076764;28;20017;-84
2022/04/19 10:20:56;;;;;;;5.70;4.22;;;15.50;46.20;;;;;;5044582;28;20115;-82
2022/04/19 10:23:39;;;;;;;6.28;4.78;;;15.50;46.00;;;;;;5061520;28;20041;-84
2022/04/19 10:26:15;;;;;;;9.48;4.78;;;15.30;46.80;;;;;;5044652;28;20366;-83
2022/04/19 10:28:41;;;;;;;8.15;4.82;;;15.00;47.00;;;;;;5045092;28;20035;-83
2022/04/19 10:31:09;;;;;;;6.60;4.50;;;15.10;47.50;;;;;;5064146;28;20021;-84
2022/04/19 10:33:47;;;;;;;9.80;6.03;;;15.40;47.10;;;;;;5065054;28;20029;-84
2022/04/19 10:36:34;;;;;;;6.90;4.97;;;15.80;46.40;;;;;;5066295;28;20025;-84
2022/04/19 10:39:15;;;;;;;5.97;4.38;;;16.10;45.60;;;;;;5064863;28;20017;-84
2022/04/19 10:42:02;;;;;;;5.05;4.30;;;16.20;45.60;;;;;;5046034;28;20485;-83
2022/04/19 10:44:49;;;;;;;6.75;4.80;;;16.30;45.30;;;;;;5054959;28;20021;-84
2022/04/19 10:47:26;;;;;;;6.00;4.03;;;16.20;44.80;;;;;;5069034;28;20085;-84
2022/04/19 10:50:06;;;;;;;8.05;5.15;;;16.20;45.20;;;;;;5064701;28;20025;-85
2022/04/19 10:53:13;;;;;;;7.05;4.57;;;16.20;45.10;;;;;;5065257;28;20180;-84
2022/04/19 10:55:40;;;;;;;6.47;3.88;;;16.30;45.10;;;;;;5046122;28;20624;-84
2022/04/19 10:58:15;;;;;;;6.13;4.60;;;16.30;45.50;;;;;;5066554;28;20094;-84
2022/04/19 11:00:41;;;;;;;5.20;4.00;;;16.40;44.70;;;;;;5047583;28;20029;-84
2022/04/19 11:03:11;;;;;;;7.25;4.53;;;16.30;44.90;;;;;;5048497;28;20110;-84
2022/04/19 11:05:41;;;;;;;5.45;3.92;;;16.30;44.40;;;;;;5067105;28;20052;-84
2022/04/19 11:08:24;;;;;;;5.40;4.25;;;16.20;45.30;;;;;;5067524;28;20027;-84
2022/04/19 11:11:24;;;;;;;5.95;4.20;;;16.20;45.00;;;;;;5063382;28;20048;-84
2022/04/19 11:14:44;;;;;;;6.00;4.00;;;15.80;45.60;;;;;;5058713;28;20056;-84
2022/04/19 11:17:44;;;;;;;6.45;4.75;;;15.70;45.80;;;;;;5031428;28;20123;-84
2022/04/19 11:20:17;;;;;;;4.35;3.00;;;15.90;45.10;;;;;;5062044;28;20043;-84
2022/04/19 11:22:48;;;;;;;6.38;4.50;;;15.90;45.60;;;;;;5065398;28;20021;-85
2022/04/19 11:25:14;;;;;;;6.00;4.50;;;16.20;45.20;;;;;;5046790;28;20079;-84
2022/04/19 11:27:52;;;;;;;6.43;4.57;;;16.30;44.40;;;;;;5062244;28;20044;-84
2022/04/19 11:30:18;;;;;;;4.43;3.95;;;16.30;44.40;;;;;;5047145;28;20031;-84
2022/04/19 11:32:50;;;;;;;4.15;3.60;;;16.20;44.00;;;;;;5048670;28;20020;-84
2022/04/19 11:35:17;;;;;;;5.95;4.43;;;16.10;44.60;;;;;;5074822;28;20024;-84
2022/04/19 11:37:44;;;;;;;6.28;4.38;;;16.20;44.10;;;;;;5057937;28;20088;-85
2022/04/19 11:48:48;;;;;;;5.72;3.72;;;17.90;44.90;;;;;;5088638;28;20031;-84
2022/04/19 11:51:15;;;;;;;4.72;3.70;;;18.30;41.20;;;;;;5075630;28;20517;-84
2022/04/19 11:53:43;;;;;;;4.30;3.78;;;18.80;40.50;;;;;;5075728;28;20055;-84
2022/04/19 11:56:09;;;;;;;5.35;3.95;;;19.20;39.80;;;;;;5064033;28;20024;-83
2022/04/19 11:58:38;;;;;;;5.72;3.70;;;19.40;39.10;;;;;;5075202;28;20043;-84
2022/04/19 12:01:06;;;;;;;6.38;5.30;;;19.30;39.20;;;;;;5075802;28;20013;-82
2022/04/19 12:03:36;;;;;;;5.85;3.45;;;18.80;39.30;;;;;;5071154;28;20033;-84
2022/04/19 12:06:14;;;;;;;4.75;3.95;;;18.50;40.40;;;;;;5048133;28;20018;-83
2022/04/19 12:08:42;;;;;;;6.35;4.00;;;18.30;41.00;;;;;;5065753;28;20048;-84
2022/04/19 12:11:15;;;;;;;5.70;3.75;;;18.10;40.70;;;;;;5045297;28;20025;-85
2022/04/19 12:13:42;;;;;;;4.35;3.92;;;17.80;41.00;;;;;;5063904;28;20032;-85
2022/04/19 12:16:36;;;;;;;7.55;4.53;;;17.60;41.70;;;;;;5084723;28;20025;-83
2022/04/19 12:19:08;;;;;;;6.30;4.30;;;17.40;42.00;;;;;;5063083;28;20021;-85
2022/04/19 12:21:38;;;;;;;6.80;3.97;;;17.00;42.60;;;;;;5045296;28;20021;-83
2022/04/19 12:24:04;;;;;;;5.80;4.43;;;16.90;42.90;;;;;;5064946;28;20162;-84
2022/04/19 12:26:30;;;;;;;6.88;4.22;;;16.80;42.90;;;;;;5045272;28;20124;-82
2022/04/19 12:29:11;;;;;;;6.28;3.33;;;16.70;42.80;;;;;;5044278;28;20025;-83
2022/04/19 12:31:41;;;;;;;5.82;4.07;;;16.80;43.50;;;;;;5063713;28;20033;-83
2022/04/19 12:34:10;;;;;;;5.13;4.00;;;17.10;42.70;;;;;;5046241;28;20025;-83
2022/04/19 12:36:48;;;;;;;4.72;3.80;;;17.30;42.80;;;;;;5063096;28;20017;-83
2022/04/19 12:39:23;;;;;;;4.40;3.60;;;17.50;41.50;;;;;;5064090;28;20020;-83
2022/04/19 12:41:54;;;;;;;5.97;3.25;;;17.50;41.80;;;;;;5063887;28;20028;-84
2022/04/19 12:44:20;;;;;;;3.53;3.17;;;17.60;41.20;;;;;;5071159;28;20021;-85
2022/04/19 12:46:48;;;;;;;4.22;3.40;;;17.60;41.60;;;;;;5087756;28;20136;-85
2022/04/19 12:49:25;;;;;;;3.95;3.47;;;17.70;41.20;;;;;;5083728;28;20546;-84
2022/04/19 12:52:05;;;;;;;3.35;2.90;;;17.70;41.50;;;;;;5064461;28;20033;-84
2022/04/19 12:54:33;;;;;;;5.88;3.05;;;17.60;42.10;;;;;;5085197;28;20048;-82
2022/04/19 12:57:11;;;;;;;4.93;3.05;;;17.70;41.70;;;;;;5066734;28;20058;-83
2022/04/19 12:59:37;;;;;;;10.65;3.60;;;17.80;41.50;;;;;;5083797;28;20076;-84
2022/04/19 13:02:03;;;;;;;3.63;3.28;;;17.80;40.30;;;;;;5066005;28;20033;-83
2022/04/19 13:04:28;;;;;;;4.18;2.95;;;17.90;40.40;;;;;;5087043;28;20032;-84
2022/04/19 13:12:26;;;;;;;4.63;3.63;;;19.60;38.00;;;;;;5078301;28;20024;-84
2022/04/19 13:14:56;;;;;;;5.40;3.00;;;19.60;37.00;;;;;;5046501;28;20025;-83
2022/04/19 13:17:24;;;;;;;2.80;2.35;;;18.90;38.00;;;;;;5071284;28;20029;-84
2022/04/19 13:19:50;;;;;;;6.90;3.10;;;18.30;41.50;;;;;;5063755;28;20029;-83
2022/04/19 13:22:16;;;;;;;3.88;3.08;;;18.10;44.40;;;;;;5063980;28;20025;-83
2022/04/19 13:24:42;;;;;;;5.45;3.05;;;18.10;42.90;;;;;;5063239;28;20055;-83
2022/04/19 13:27:10;;;;;;;4.75;2.83;;;17.60;39.30;;;;;;5063668;28;20029;-83
2022/04/19 13:29:37;;;;;;;4.47;3.25;;;17.40;39.50;;;;;;5045757;28;20025;-83
2022/04/19 13:32:03;;;;;;;3.40;2.42;;;17.20;39.60;;;;;;5064996;28;20024;-83
2022/04/19 13:34:30;;;;;;;2.22;2.03;;;17.40;39.90;;;;;;5064585;28;20025;-83
2022/04/19 13:36:56;;;;;;;3.15;2.85;;;17.90;39.90;;;;;;5064339;28;20501;-84
2022/04/19 13:39:23;;;;;;;3.92;2.38;;;18.40;38.30;;;;;;5061182;28;20155;-83
2022/04/19 13:41:49;;;;;;;4.68;2.70;;;18.40;38.50;;;;;;5044675;28;20028;-85
2022/04/19 13:44:17;;;;;;;2.60;2.35;;;18.40;38.50;;;;;;5064892;28;20048;-83
2022/04/19 13:46:44;;;;;;;4.85;2.40;;;18.20;39.20;;;;;;5091180;28;20023;-83
2022/04/19 13:49:10;;;;;;;3.65;2.40;;;18.00;39.30;;;;;;5094163;28;20024;-84
2022/04/19 13:51:39;;;;;;;5.25;2.70;;;17.90;39.70;;;;;;5095423;28;20008;-83
2022/04/19 13:54:13;;;;;;;4.90;2.65;;;17.70;40.00;;;;;;5095253;28;20005;-82
2022/04/19 13:56:44;;;;;;;4.47;2.72;;;17.50;40.30;;;;;;5077036;28;20154;-82
2022/04/19 13:59:12;;;;;;;3.65;2.75;;;17.30;40.50;;;;;;5060885;28;20530;-83
2022/04/19 14:01:39;;;;;;;4.63;2.20;;;17.20;40.20;;;;;;5094725;28;20027;-85